• Join FlightAware (Why Join?)
  • Login
  • US Flag 
02:22PM EDT


 

Airport Tracker/Info


-or-


 

Live Flight TrackerFlight Track Log ✈ SWA2166 ✈ 04-May-2013 ✈ KATL - KDEN

Flight Track Log - Related Links

Times and Time Zones

All times are in EDT time to prevent confusion due to time zone crossing. See the SWA2166 flight status page for this flight to view local times or setup timezone preferences in your user account.

Time Position Orientation Groundspeed Altitude Reporting Facility
EDT Latitude Longitude Course Direction KTS MPH feet Rate Location/Type
06:47AM 33.6667 -84.3500 270° West 212 244 4,600  Level Atlanta TRACON
06:48AM 33.7167 -84.2833 48° Northeast 260 299 7,200 2,760 Climbing Atlanta TRACON
06:50AM 33.8001 -84.3299 270° West  Level FlightAware Approximate
06:50AM 33.8106 -84.3814 270° West 239 275 13,200  Level Atlanta Center
06:51AM 33.8081 -84.4839 268° West 282 325 15,200 2,100 Climbing Atlanta Center
06:52AM 33.8264 -84.6089 280° West 331 381 17,500 2,400 Climbing Atlanta Center
06:53AM 33.8001 -84.7792 270° West  Level FlightAware Approximate
06:53AM 33.8550 -84.7317 286° West 359 413 20,100  Level Atlanta Center
06:54AM 33.8875 -84.8647 286° West 392 451 22,800 2,400 Climbing Atlanta Center
06:55AM 33.9219 -84.9950 288° West 412 474 25,000 1,800 Climbing Atlanta Center
06:56AM 33.9542 -85.1356 285° West 425 489 26,500 1,500 Climbing Atlanta Center
06:57AM 33.9883 -85.2789 286° West 437 503 28,100 1,500 Climbing Atlanta Center
06:58AM 34.0244 -85.4247 287° West 453 521 29,600 1,620 Climbing Atlanta Center
06:59AM 34.0603 -85.5733 286° West 458 527 31,400 1,680 Climbing Atlanta Center
07:00AM 34.0939 -85.7219 285° West 458 527 33,000 1,500 Climbing Atlanta Center
07:01AM 34.1272 -85.8681 285° West 450 518 34,400 1,620 Climbing Atlanta Center
07:02AM 34.1644 -86.0147 287° West 450 518 36,300 1,800 Climbing Atlanta Center
07:03AM 34.1975 -86.1586 286° West 455 524 38,000 840 Climbing Atlanta Center
07:04AM 34.2283 -86.3025 285° West 449 517 38,000  Level Atlanta Center
07:05AM 34.2614 -86.4392 286° West 443 510 38,000  Level Atlanta Center
07:08AM 34.3331 -86.7528 286° West 423 487 38,000  Level Memphis Center
07:09AM 34.3622 -86.8925 284° West 428 493 38,000  Level Memphis Center
07:10AM 34.3975 -87.0422 286° West 423 487 38,000  Level Memphis Center
07:11AM 34.4283 -87.1794 285° West 428 493 38,000  Level Memphis Center
07:12AM 34.4586 -87.3092 286° West 440 506 38,000  Level Memphis Center
07:13AM 34.4892 -87.4467 285° West 433 498 38,000  Level Memphis Center
07:14AM 34.5172 -87.5869 284° West 425 489 38,000  Level Memphis Center
07:15AM 34.5475 -87.7297 284° West 431 496 38,000  Level Memphis Center
07:16AM 34.5819 -87.8850 285° West 431 496 38,000  Level Memphis Center
07:17AM 34.6139 -88.0253 286° West 431 496 38,000  Level Memphis Center
07:18AM 34.6439 -88.1708 284° West 436 502 38,000  Level Memphis Center
07:19AM 34.6756 -88.3192 285° West 441 507 38,000  Level Memphis Center
07:20AM 34.7050 -88.4625 284° West 446 513 38,000  Level Memphis Center
07:21AM 34.7342 -88.6033 284° West 439 505 38,000  Level Memphis Center
07:22AM 34.7653 -88.7467 285° West 439 505 38,000  Level Memphis Center
07:23AM 34.7961 -88.8903 285° West 439 505 38,000  Level Memphis Center
07:24AM 34.8228 -89.0342 283° West 439 505 38,000  Level Memphis Center
07:25AM 34.8536 -89.1778 285° West 439 505 38,000  Level Memphis Center
07:26AM 34.8797 -89.3014 284° West 433 498 38,000  Level Memphis Center
07:27AM 34.9081 -89.4456 284° West 433 498 38,000  Level Memphis Center
07:28AM 34.9381 -89.5869 285° West 433 498 38,000  Level Memphis Center
07:29AM 34.9725 -89.7489 285° West 449 517 38,000  Level Memphis Center
07:30AM 35.0022 -89.8983 284° West 455 524 38,000  Level Memphis Center
07:31AM 35.0425 -90.0375 290° West 442 509 38,000  Level Memphis Center
07:32AM 35.0969 -90.1539 300° West 437 503 38,000  Level Memphis Center
07:33AM 35.1575 -90.2833 300° West 443 510 38,000  Level Memphis Center
07:34AM 35.2181 -90.4156 299° West 443 510 38,000  Level Memphis Center
07:35AM 35.2783 -90.5453 300° West 443 510 38,000  Level Memphis Center
07:36AM 35.3367 -90.6728 299° West 437 503 38,000  Level Memphis Center
07:37AM 35.3989 -90.7978 301° West 437 503 38,000  Level Memphis Center
07:38AM 35.4567 -90.9331 298° West 442 509 38,000  Level Memphis Center
07:39AM 35.5206 -91.0714 300° West 437 503 38,000  Level Memphis Center
07:40AM 35.5803 -91.2019 299° West 437 503 38,000  Level Memphis Center
07:41AM 35.6397 -91.3328 299° West 437 503 38,000  Level Memphis Center
07:42AM 35.6953 -91.4458 301° West 437 503 38,000  Level Memphis Center
07:43AM 35.7522 -91.5772 298° West 437 503 38,000  Level Memphis Center
07:44AM 35.8114 -91.7061 300° West 437 503 38,000  Level Memphis Center
07:45AM 35.8683 -91.8375 298° West 437 503 38,000  Level Memphis Center
07:46AM 35.9272 -91.9669 299° West 437 503 38,000  Level Memphis Center
07:47AM 35.9881 -92.1014 299° West 442 509 38,000  Level Memphis Center
07:48AM 36.0467 -92.2361 298° West 448 516 38,000  Level Memphis Center
07:49AM 36.1050 -92.3686 299° West 443 510 38,000  Level Memphis Center
07:50AM 36.1631 -92.5011 299° West 438 504 38,000  Level Memphis Center
07:51AM 36.2214 -92.6364 298° West 443 510 38,000  Level Memphis Center
07:52AM 36.2792 -92.7692 298° West 443 510 38,000  Level Memphis Center
07:53AM 36.3389 -92.9075 298° West 443 510 38,000  Level Memphis Center
07:55AM 36.4622 -93.1847 299° West 440 506 38,000  Level Kansas City Center
07:56AM 36.5189 -93.3181 298° West 440 506 38,000  Level Kansas City Center
07:57AM 36.5758 -93.4494 298° West 436 502 38,000  Level Kansas City Center
07:58AM 36.6331 -93.5828 298° West 437 503 38,000  Level Kansas City Center
07:59AM 36.6894 -93.7169 298° West 439 505 38,000  Level Kansas City Center
08:00AM 36.7447 -93.8478 298° West 442 509 38,000  Level Kansas City Center
08:01AM 36.8022 -93.9822 298° West 440 506 38,000  Level Kansas City Center
08:02AM 36.8694 -94.1422 298° West 436 502 38,000  Level Kansas City Center
08:03AM 36.9256 -94.2756 298° West 435 501 38,000  Level Kansas City Center
08:04AM 36.9800 -94.4094 297° West 434 499 38,000  Level Kansas City Center
08:05AM 37.0353 -94.5439 297° West 435 501 38,000  Level Kansas City Center
08:06AM 37.0900 -94.6772 297° West 434 499 38,000  Level Kansas City Center
08:07AM 37.1444 -94.8111 297° West 433 498 38,000  Level Kansas City Center
08:08AM 37.1997 -94.9461 297° West 435 501 38,000  Level Kansas City Center
08:09AM 37.2544 -95.0806 297° West 434 499 38,000  Level Kansas City Center
08:10AM 37.3086 -95.2153 297° West 434 499 38,000  Level Kansas City Center
08:11AM 37.3625 -95.3483 297° West 431 496 38,000  Level Kansas City Center
08:12AM 37.4164 -95.4839 297° West 432 497 38,000  Level Kansas City Center
08:13AM 37.4703 -95.6150 297° West 427 491 38,000  Level Kansas City Center
08:14AM 37.5239 -95.7486 297° West 426 490 38,000  Level Kansas City Center
08:15AM 37.5761 -95.8897 295° West 437 503 38,000  Level Kansas City Center
08:16AM 37.6294 -96.0239 297° West 431 496 38,000  Level Kansas City Center
08:17AM 37.6900 -96.1700 298° West 434 499 38,000  Level Kansas City Center
08:18AM 37.7425 -96.3081 296° West 436 502 38,000  Level Kansas City Center
08:19AM 37.7956 -96.4447 296° West 434 499 38,000  Level Kansas City Center
08:20AM 37.8492 -96.5808 297° West 433 498 38,000  Level Kansas City Center
08:21AM 37.9019 -96.7175 296° West 434 499 38,000 540 Level Kansas City Center
08:22AM 37.9547 -96.8542 296° West 434 499 39,200 960 Climbing Kansas City Center
08:23AM 38.0053 -96.9864 296° West 421 484 40,000 360 Climbing Kansas City Center
08:24AM 38.0558 -97.1189 296° West 421 484 40,000  Level Kansas City Center
08:25AM 38.1069 -97.2531 296° West 422 486 40,000  Level Kansas City Center
08:26AM 38.1675 -97.4142 296° West 425 489 40,000  Level Kansas City Center
08:27AM 38.2178 -97.5481 296° West 424 488 40,000  Level Kansas City Center
08:28AM 38.2683 -97.6825 296° West 426 490 40,000  Level Kansas City Center
08:29AM 38.3189 -97.8164 296° West 424 488 40,000  Level Kansas City Center
08:30AM 38.3675 -97.9508 295° West 423 487 40,000  Level Kansas City Center
08:31AM 38.4172 -98.0833 296° West 419 482 40,000  Level Kansas City Center
08:32AM 38.4658 -98.2161 295° West 415 478 40,000  Level Kansas City Center
08:33AM 38.5139 -98.3478 295° West 412 474 40,000  Level Kansas City Center
08:34AM 38.5622 -98.4797 295° West 411 473 40,000  Level Kansas City Center
08:35AM 38.6106 -98.6092 296° West 406 467 40,000  Level Kansas City Center
08:36AM 38.6569 -98.7408 294° West 406 467 40,000  Level Kansas City Center
08:37AM 38.7047 -98.8722 295° West 408 470 40,000  Level Kansas City Center
08:38AM 38.7611 -99.0311 295° West 409 471 40,000  Level Kansas City Center
08:39AM 38.8078 -99.1642 294° West 410 472 40,000  Level Kansas City Center
08:40AM 38.8478 -99.2997 291° West 408 470 40,000  Level Kansas City Center
08:41AM 38.8500 -99.4486 271° West 417 480 40,000  Level Kansas City Center
08:42AM 38.8497 -99.4750 269° West 411 473 40,000  Level Denver Center
08:43AM 38.8517 -99.6428 271° West 420 483 40,000  Level Denver Center
08:44AM 38.8522 -99.7844 270° West 418 481 40,000  Level Denver Center
08:45AM 38.8531 -99.9264 270° West 417 480 40,000  Level Denver Center
08:46AM 38.8544 -100.0919 271° West 418 481 40,000  Level Denver Center
08:47AM 38.8547 -100.2331 270° West 416 479 40,000  Level Denver Center
08:48AM 38.8550 -100.3778 270° West 422 486 40,000  Level Denver Center
08:49AM 38.8547 -100.5392 270° West 411 473 40,000  Level Denver Center
08:50AM 38.8550 -100.6792 270° West 412 474 40,000  Level Denver Center
08:51AM 38.8550 -100.8208 270° West 415 478 40,000  Level Denver Center
08:52AM 38.8547 -100.9836 270° West 412 474 40,000 -540 Level Denver Center
08:53AM 38.8558 -101.1242 271° West 409 471 39,000 -960 Descending Denver Center
08:54AM 38.8656 -101.2544 276° West 389 448 38,100 -960 Descending Denver Center
08:55AM 38.8769 -101.4125 275° West 397 457 37,100 -960 Descending Denver Center
08:56AM 38.8847 -101.5511 274° West 405 466 36,200 -1,020 Descending Denver Center
08:57AM 38.8967 -101.7078 276° West 396 456 35,100 -1,020 Descending Denver Center
08:58AM 38.9044 -101.8400 274° West 389 448 34,200 -600 Descending Denver Center
08:59AM 38.9128 -101.9700 275° West 385 443 34,000 -120 Descending Denver Center
09:00AM 38.9222 -102.1219 275° West 385 443 34,000  Level Denver Center
09:01AM 38.9292 -102.2506 274° West 380 437 34,000  Level Denver Center
09:02AM 38.9381 -102.3800 275° West 380 437 34,000  Level Denver Center
09:03AM 38.9425 -102.4889 273° West 382 440 34,000  Level Denver Center
09:04AM 38.9531 -102.6603 275° West 378 435 34,000  Level Denver Center
09:05AM 38.9617 -102.7958 275° West 376 433 34,000  Level Denver Center
09:06AM 38.9678 -102.9311 273° West 378 435 34,000  Level Denver Center
09:07AM 38.9850 -103.0639 280° West 376 433 34,000  Level Denver Center
09:08AM 39.0397 -103.1797 301° West 375 432 34,000  Level Denver Center
09:09AM 39.0950 -103.2933 302° West 371 427 34,000 -1,140 Level Denver Center
09:10AM 39.1514 -103.4111 302° West 382 440 31,800 -2,400 Descending Denver Center
09:11AM 39.2072 -103.5311 301° West 387 445 29,200 -2,940 Descending Denver Center
09:12AM 39.2628 -103.6500 301° West 383 441 25,900 -2,880 Descending Denver Center
09:13AM 39.3194 -103.7706 301° West 390 449 23,400 -2,580 Descending Denver Center
09:14AM 39.3742 -103.8889 301° West 384 442 20,800 -2,220 Descending Denver Center
09:15AM 39.4369 -104.0044 305° West 373 429 18,900 -2,160 Descending Denver Center
09:16AM 39.5000 -104.1081 308° West 367 422 16,500 -1,980 Descending Denver Center
09:17AM 39.5589 -104.2081 307° West 344 396 15,000 -1,740 Descending Denver Center
09:18AM 39.6192 -104.3100 308° West 354 407 13,000 -1,020 Descending Denver Center
09:19AM 39.6769 -104.4086 307° West 346 398 13,000  Level Denver Center
09:20AM 39.7314 -104.4969 309° West 308 354 13,000 -300 Level Denver Center
09:21AM 39.8136 -104.5233 346° North 297 342 12,400 -780 Descending Denver Center
09:22AM 39.8894 -104.5222 North 277 319 11,500 -900 Descending Denver Center
09:23AM 39.9333 -104.5167 North 254 292 10,900 -900 Descending Denver TRACON
09:24AM 40.0000 -104.5167 360° North 242 278 10,100 -840 Descending Denver TRACON
09:25AM 40.0500 -104.5667 323° Northwest 239 275 9,300 -1,140 Descending Denver TRACON
09:26AM 40.0333 -104.6333 252° West 230 265 8,000 -1,320 Descending Denver TRACON
09:26AM 40.0056 -104.6611 217° Southwest 207 238 7,500 -840 Descending Denver Center
09:27AM 39.9578 -104.6850 201° Southwest 185 213 6,600 -900 Descending Denver Center
09:28AM 39.9022 -104.6864 181° South 161 185 5,500 -600 Descending Denver Center
09:29AM 39.8753 -104.6878 182° South 125 144 5,400 -120 Descending Denver Center
09:31AM 39.8617 -104.6732 North  Level Estimated
09:38AM 39.8617 -104.6732 North  Level Estimated
09:39AM 39.8617 -104.6732 North  Level Estimated
09:40AM 39.8617 -104.6732 North  Level Estimated